Ana Sayfa
METAR-TAF:

METAR-TAF

Havaalanları :

Warren Field Airport

Washington, Kuzey Carolina, Amerika Birleşik Devletleri

Enlem: 35-34-14N, Boylam: 077-02-59W, yükseklik: 12 m

Güncel hava durumu gözlemi

Rapor saat 20:35 UTC de 13 dakika önce yapıldı.
Sakin rüzgar
Sıcaklık 14°C
Nem 55%
Basınç 1018 hPa
Görüş mesafesi: 16.1 km
4800 ft yükseklikte parçalı çok bulutlu
6000 ft yükseklikte çok bulutlu

METAR: KOCW 242035Z AUTO 00000KT 10SM BKN048 OVC060 14/05 A3007 RMK AO2 T01380048

Saat: 15:48 (20:48 UTC)


TAF: eksik

4.000'den fazla havaalanı için hava durumu gözlemleri ve tahminleri (METAR ve TAF raporları).

Kullanılabilir istasyonlar harita üzerinde sarı ve kırmızı noktalarla gösterilir.

İstasyonun adını görmek için fareyi noktanın üzerinde gezdirin.

Sonrasında hava gözlem ve tahminlerini görmek için tıklayın.

Haritayı değiştirmek için: yaklaştırmak için siyah artı işaretli yeşil düğmeye ve uzaklaştırmak için de eksi işaretli düğmeye hızla tıklayın; bitişik haritalar için yeşil okları kullanın.


METAR-TAF: